Time;durP1;ratioP1;P1;durP2;ratioP2;P2;SDS_P1;SDS_P2;PMS_P1;PMS_P2;Temp;Humidity;BMP_temperature;BMP_pressure;BME280_temperature;BME280_humidity;BME280_pressure;Samples;Min_cycle;Max_cycle;Signal;HPM_P1;HPM_P2
2021/05/28 00:02:19;;;;;;;2.43;1.97;;;9.90;99.90;;;;;;5083595;28;20201;-52
2021/05/28 00:04:46;;;;;;;1.63;1.53;;;9.90;99.90;;;;;;5083128;28;20405;-46
2021/05/28 00:07:12;;;;;;;2.23;1.97;;;9.90;99.90;;;;;;5083857;28;20263;-53
2021/05/28 00:09:40;;;;;;;1.90;1.80;;;9.80;99.90;;;;;;5081472;28;20236;-45
2021/05/28 00:12:07;;;;;;;3.13;2.20;;;9.80;99.90;;;;;;5069943;28;20285;-50
2021/05/28 00:14:33;;;;;;;5.43;2.53;;;9.80;99.90;;;;;;5078370;28;20192;-45
2021/05/28 00:16:59;;;;;;;3.30;2.40;;;9.80;99.90;;;;;;5085506;28;20703;-49
2021/05/28 00:19:25;;;;;;;6.23;2.50;;;9.80;99.90;;;;;;5081488;28;20210;-51
2021/05/28 00:21:51;;;;;;;2.87;2.37;;;9.80;99.90;;;;;;5083131;28;20671;-50
2021/05/28 00:24:19;;;;;;;4.10;2.30;;;9.70;99.90;;;;;;5083172;28;20201;-54
2021/05/28 00:26:46;;;;;;;3.13;2.30;;;9.70;99.90;;;;;;5074180;28;20222;-52
2021/05/28 00:29:12;;;;;;;4.70;2.87;;;9.70;99.90;;;;;;5068390;28;20345;-48
2021/05/28 00:31:39;;;;;;;4.57;2.87;;;9.70;99.90;;;;;;5084946;28;20194;-45
2021/05/28 00:34:05;;;;;;;2.80;2.60;;;9.60;99.90;;;;;;5080755;28;20197;-48
2021/05/28 00:36:31;;;;;;;3.13;2.83;;;9.60;99.90;;;;;;5084992;28;20214;-47
2021/05/28 00:38:57;;;;;;;3.13;2.80;;;9.60;99.90;;;;;;5081427;28;20217;-54
2021/05/28 00:41:23;;;;;;;6.90;3.07;;;9.60;99.90;;;;;;5082909;28;20265;-45
2021/05/28 00:43:50;;;;;;;3.27;3.03;;;9.50;99.90;;;;;;5062841;28;20214;-54
2021/05/28 00:46:16;;;;;;;3.90;3.50;;;9.50;99.90;;;;;;5081645;28;20221;-45
2021/05/28 00:48:43;;;;;;;4.00;3.70;;;9.40;99.90;;;;;;5084411;28;20189;-49
2021/05/28 00:51:09;;;;;;;4.33;2.90;;;9.40;99.90;;;;;;5080525;28;20189;-48
2021/05/28 00:53:36;;;;;;;4.17;3.43;;;9.40;99.90;;;;;;5084600;28;20236;-49
2021/05/28 00:56:02;;;;;;;5.90;3.20;;;9.30;99.90;;;;;;5080719;28;20277;-55
2021/05/28 00:58:29;;;;;;;6.20;3.73;;;9.30;99.90;;;;;;5083629;28;20266;-47
2021/05/28 01:00:56;;;;;;;3.97;3.67;;;9.20;99.90;;;;;;5067308;28;20213;-54
2021/05/28 01:03:22;;;;;;;6.13;3.63;;;9.20;99.90;;;;;;5082724;28;20190;-48
2021/05/28 01:05:49;;;;;;;4.53;4.13;;;9.20;99.90;;;;;;5072880;28;20217;-53
2021/05/28 01:08:15;;;;;;;7.53;4.03;;;9.10;99.90;;;;;;5071490;28;20214;-46
2021/05/28 01:10:41;;;;;;;4.10;3.70;;;9.10;99.90;;;;;;5077498;28;20205;-56
2021/05/28 01:13:09;;;;;;;6.03;4.00;;;9.10;99.90;;;;;;5079531;28;20182;-51
2021/05/28 01:15:35;;;;;;;4.93;3.93;;;9.10;99.90;;;;;;5065684;28;20814;-45
2021/05/28 01:18:03;;;;;;;9.27;4.03;;;9.10;99.90;;;;;;5079624;28;20208;-50
2021/05/28 01:20:29;;;;;;;6.87;4.63;;;9.10;99.90;;;;;;5083031;28;20197;-45
2021/05/28 01:22:58;;;;;;;5.17;4.60;;;9.00;99.90;;;;;;5080040;28;20728;-51
2021/05/28 01:25:25;;;;;;;6.90;4.63;;;9.00;99.90;;;;;;5082304;28;20232;-45
2021/05/28 01:27:51;;;;;;;5.43;4.47;;;9.00;99.90;;;;;;5079318;28;20217;-51
2021/05/28 01:30:18;;;;;;;7.87;4.90;;;8.90;99.90;;;;;;5068093;28;20214;-48
2021/05/28 01:32:45;;;;;;;4.70;4.30;;;8.90;99.90;;;;;;5082329;28;20556;-55
2021/05/28 01:35:13;;;;;;;7.70;3.57;;;8.90;99.90;;;;;;5081504;28;20182;-45
2021/05/28 01:37:40;;;;;;;6.63;4.70;;;8.90;99.90;;;;;;5081827;28;20210;-54
2021/05/28 01:40:09;;;;;;;7.77;4.10;;;8.90;99.90;;;;;;5073631;28;20224;-50
2021/05/28 01:42:36;;;;;;;6.70;4.20;;;8.90;99.90;;;;;;5081469;28;20205;-48
2021/05/28 01:45:03;;;;;;;5.07;4.50;;;8.90;99.90;;;;;;5095797;28;20201;-50
2021/05/28 01:47:30;;;;;;;5.70;4.63;;;8.90;99.90;;;;;;5072051;28;20228;-50
2021/05/28 01:49:56;;;;;;;6.17;4.13;;;8.80;99.90;;;;;;5076997;28;20198;-55
2021/05/28 01:52:23;;;;;;;5.43;4.20;;;8.80;99.90;;;;;;5074763;28;20251;-48
2021/05/28 01:54:49;;;;;;;5.20;4.23;;;8.80;99.90;;;;;;5076341;28;20198;-50
2021/05/28 01:57:16;;;;;;;7.03;4.50;;;8.80;99.90;;;;;;5081230;28;20206;-46
2021/05/28 01:59:44;;;;;;;5.07;4.57;;;8.70;99.90;;;;;;5074174;28;20214;-55
2021/05/28 02:02:10;;;;;;;8.10;4.80;;;8.70;99.90;;;;;;5064710;28;20210;-49
2021/05/28 02:04:36;;;;;;;5.93;4.27;;;8.60;99.90;;;;;;5075898;28;20198;-53
2021/05/28 02:07:03;;;;;;;6.43;4.00;;;8.60;99.90;;;;;;5075390;28;20774;-45
2021/05/28 02:09:30;;;;;;;5.70;3.93;;;8.60;99.90;;;;;;5079328;28;20593;-47
2021/05/28 02:11:57;;;;;;;11.87;4.80;;;8.60;99.90;;;;;;5076824;28;20698;-47
2021/05/28 02:14:24;;;;;;;6.87;4.97;;;8.60;99.90;;;;;;5072641;28;20194;-46
2021/05/28 02:16:51;;;;;;;10.33;4.87;;;8.50;99.90;;;;;;5077704;28;20229;-53
2021/05/28 02:19:17;;;;;;;11.13;5.13;;;8.50;99.90;;;;;;5069813;28;20267;-48
2021/05/28 02:21:43;;;;;;;6.10;4.83;;;8.50;99.90;;;;;;5083407;28;20201;-53
2021/05/28 02:24:14;;;;;;;7.17;4.30;;;8.40;99.90;;;;;;5084279;28;21035;-46
2021/05/28 02:26:40;;;;;;;8.43;4.67;;;8.40;99.90;;;;;;5071779;28;20264;-51
2021/05/28 02:29:06;;;;;;;8.33;4.70;;;8.40;99.90;;;;;;5079369;28;20213;-45
2021/05/28 02:31:33;;;;;;;4.87;4.30;;;8.40;99.90;;;;;;5087538;28;20194;-53
2021/05/28 02:33:59;;;;;;;6.13;4.90;;;8.30;99.90;;;;;;5069093;28;20194;-50
2021/05/28 02:36:26;;;;;;;9.53;4.87;;;8.30;99.90;;;;;;5086944;28;20270;-48
2021/05/28 02:38:52;;;;;;;7.10;4.93;;;8.20;99.90;;;;;;5082567;28;20218;-54
2021/05/28 02:41:18;;;;;;;7.87;4.60;;;8.20;99.90;;;;;;5087017;28;20214;-47
2021/05/28 02:43:44;;;;;;;10.47;6.00;;;8.20;99.90;;;;;;5081973;28;20198;-55
2021/05/28 02:46:10;;;;;;;8.50;5.60;;;8.20;99.90;;;;;;5083331;28;20206;-48
2021/05/28 02:48:37;;;;;;;8.03;4.97;;;8.20;99.90;;;;;;5082208;28;20182;-54
2021/05/28 02:51:03;;;;;;;14.97;6.07;;;8.10;99.90;;;;;;5073997;28;20218;-45
2021/05/28 02:53:33;;;;;;;5.43;4.90;;;8.10;99.90;;;;;;5086985;28;20232;-46
2021/05/28 02:56:00;;;;;;;6.37;5.70;;;8.10;99.90;;;;;;5083038;28;20899;-46
2021/05/28 02:58:26;;;;;;;7.17;5.43;;;8.10;99.90;;;;;;5086704;28;20213;-50
2021/05/28 03:00:52;;;;;;;9.03;4.90;;;8.10;99.90;;;;;;5077206;28;20201;-51
2021/05/28 03:03:18;;;;;;;9.13;5.07;;;8.10;99.90;;;;;;5086358;28;20279;-50
2021/05/28 03:05:46;;;;;;;8.63;5.00;;;8.10;99.90;;;;;;5069283;28;20214;-55
2021/05/28 03:08:12;;;;;;;7.67;5.07;;;8.10;99.90;;;;;;5085630;28;20628;-46
2021/05/28 03:10:38;;;;;;;7.37;5.37;;;8.10;99.90;;;;;;5084527;28;20194;-53
2021/05/28 03:13:04;;;;;;;5.77;4.53;;;8.10;99.90;;;;;;5080676;28;20198;-54
2021/05/28 03:15:30;;;;;;;7.93;5.20;;;8.10;99.90;;;;;;5078154;28;20296;-46
2021/05/28 03:17:58;;;;;;;13.67;4.60;;;8.10;99.90;;;;;;5076640;28;20229;-49
2021/05/28 03:20:26;;;;;;;5.40;4.60;;;8.20;99.90;;;;;;5085214;28;20308;-50
2021/05/28 03:22:53;;;;;;;8.27;5.10;;;8.20;99.90;;;;;;5067497;28;20213;-50
2021/05/28 03:25:20;;;;;;;5.50;4.70;;;8.20;99.90;;;;;;5085802;28;20205;-50
2021/05/28 03:27:49;;;;;;;5.80;4.33;;;8.20;99.90;;;;;;5080629;28;20241;-55
2021/05/28 03:30:16;;;;;;;6.77;4.43;;;8.20;99.90;;;;;;5083799;28;20198;-48
2021/05/28 03:32:43;;;;;;;7.50;4.67;;;8.20;99.90;;;;;;5079423;28;20213;-54
2021/05/28 03:35:09;;;;;;;8.30;4.37;;;8.20;99.90;;;;;;5083034;28;20200;-48
2021/05/28 03:37:38;;;;;;;7.57;4.27;;;8.20;99.90;;;;;;5070512;28;20222;-55
2021/05/28 03:40:07;;;;;;;4.93;4.53;;;8.30;99.90;;;;;;5082429;28;20210;-50
2021/05/28 03:42:33;;;;;;;5.37;4.07;;;8.20;99.90;;;;;;5085457;28;20206;-54
2021/05/28 03:44:59;;;;;;;5.37;4.53;;;8.20;99.90;;;;;;5082040;28;20205;-47
2021/05/28 03:47:25;;;;;;;5.47;4.60;;;8.30;99.90;;;;;;5081099;28;20229;-46
2021/05/28 03:49:52;;;;;;;6.70;3.77;;;8.30;99.90;;;;;;5080991;28;20192;-53
2021/05/28 03:52:18;;;;;;;6.33;4.17;;;8.30;99.90;;;;;;5085779;28;20282;-52
2021/05/28 03:54:44;;;;;;;10.40;4.50;;;8.30;99.90;;;;;;5071530;28;20202;-54
2021/05/28 03:57:11;;;;;;;11.30;4.73;;;8.30;99.90;;;;;;5083515;28;20368;-49
2021/05/28 03:59:38;;;;;;;6.00;4.03;;;8.30;99.90;;;;;;5083392;28;20262;-55
2021/05/28 04:02:04;;;;;;;5.20;4.50;;;8.20;99.90;;;;;;5071067;28;20194;-47
2021/05/28 04:04:31;;;;;;;9.13;4.03;;;8.20;99.90;;;;;;5075079;28;20262;-48
2021/05/28 04:06:58;;;;;;;6.67;4.20;;;8.30;99.90;;;;;;5080327;28;20596;-46
2021/05/28 04:09:24;;;;;;;8.67;4.47;;;8.30;99.90;;;;;;5070135;28;20667;-52
2021/05/28 04:11:50;;;;;;;4.97;4.17;;;8.30;99.90;;;;;;5084062;28;20212;-50
2021/05/28 04:14:17;;;;;;;8.87;4.50;;;8.30;99.90;;;;;;5080213;28;20198;-56
2021/05/28 04:16:44;;;;;;;5.87;4.40;;;8.30;99.90;;;;;;5078397;28;20341;-46
2021/05/28 04:19:10;;;;;;;5.23;4.03;;;8.30;99.90;;;;;;5084042;28;20389;-53
2021/05/28 04:21:36;;;;;;;5.57;5.03;;;8.30;99.90;;;;;;5076487;28;20371;-46
2021/05/28 04:24:03;;;;;;;9.83;5.03;;;8.30;99.90;;;;;;5070932;28;20209;-47
2021/05/28 04:26:29;;;;;;;9.17;4.60;;;8.30;99.90;;;;;;5080502;28;20884;-50
2021/05/28 04:28:55;;;;;;;8.53;4.70;;;8.30;99.90;;;;;;5084347;28;20913;-47
2021/05/28 04:31:23;;;;;;;6.10;4.13;;;8.30;99.90;;;;;;5080137;28;20186;-55
2021/05/28 04:33:49;;;;;;;8.43;4.27;;;8.40;99.90;;;;;;5081776;28;20250;-45
2021/05/28 04:36:15;;;;;;;7.57;4.50;;;8.40;99.90;;;;;;5083099;28;20206;-54
2021/05/28 04:38:41;;;;;;;7.17;4.33;;;8.40;99.90;;;;;;5076919;28;21138;-49
2021/05/28 04:41:08;;;;;;;5.67;4.57;;;8.50;99.90;;;;;;5066047;28;20202;-48
2021/05/28 04:43:34;;;;;;;7.90;5.07;;;8.50;99.90;;;;;;5079471;28;20255;-46
2021/05/28 04:46:00;;;;;;;7.90;4.40;;;8.50;99.90;;;;;;5083784;28;20205;-48
2021/05/28 04:48:27;;;;;;;6.87;4.57;;;8.60;99.90;;;;;;5076203;28;20280;-54
2021/05/28 04:50:53;;;;;;;7.10;4.87;;;8.60;99.90;;;;;;5083987;28;20303;-45
2021/05/28 04:53:20;;;;;;;9.13;5.20;;;8.60;99.90;;;;;;5077551;28;20246;-52
2021/05/28 04:55:46;;;;;;;6.97;4.40;;;8.70;99.90;;;;;;5066063;28;24578;-50
2021/05/28 04:58:12;;;;;;;9.10;5.07;;;8.70;99.90;;;;;;5081232;28;20218;-54
2021/05/28 05:00:39;;;;;;;7.13;5.00;;;8.80;99.90;;;;;;5080739;28;20214;-48
2021/05/28 05:03:05;;;;;;;11.20;5.10;;;8.80;99.90;;;;;;5079481;28;20285;-50
2021/05/28 05:05:32;;;;;;;9.83;4.73;;;8.90;99.90;;;;;;5080311;28;20186;-46
2021/05/28 05:07:59;;;;;;;7.80;5.70;;;8.90;99.90;;;;;;5083127;28;20666;-45
2021/05/28 05:10:25;;;;;;;9.57;5.33;;;9.00;99.90;;;;;;5063309;28;20201;-54
2021/05/28 05:12:51;;;;;;;7.33;5.33;;;9.10;99.90;;;;;;5077450;28;20213;-47
2021/05/28 05:15:18;;;;;;;7.93;5.57;;;9.20;99.90;;;;;;5079562;28;20198;-55
2021/05/28 05:17:44;;;;;;;13.47;6.40;;;9.20;99.90;;;;;;5081380;28;20221;-46
2021/05/28 05:20:11;;;;;;;10.43;5.80;;;9.30;99.90;;;;;;5077566;28;20210;-52
2021/05/28 05:22:38;;;;;;;7.97;5.33;;;9.30;99.90;;;;;;5080127;28;20185;-48
2021/05/28 05:25:06;;;;;;;8.50;6.10;;;9.40;99.90;;;;;;5078369;28;20202;-47
2021/05/28 05:27:33;;;;;;;6.53;5.60;;;9.50;99.90;;;;;;5062232;28;20226;-50
2021/05/28 05:30:00;;;;;;;9.87;6.37;;;9.50;99.90;;;;;;5083266;28;20551;-48
2021/05/28 05:32:26;;;;;;;16.23;6.90;;;9.60;99.90;;;;;;5080528;28;20186;-54
2021/05/28 05:34:54;;;;;;;9.73;6.77;;;9.60;99.90;;;;;;5078776;28;20205;-47
2021/05/28 05:37:20;;;;;;;16.37;9.73;;;9.80;99.90;;;;;;5071014;28;20224;-52
2021/05/28 05:39:48;;;;;;;17.53;10.93;;;9.90;99.90;;;;;;5077290;28;20702;-47
2021/05/28 05:42:14;;;;;;;12.50;9.27;;;9.90;99.90;;;;;;5070765;28;20209;-51
2021/05/28 05:44:41;;;;;;;13.73;10.50;;;10.00;99.90;;;;;;5071417;28;20210;-47
2021/05/28 05:47:07;;;;;;;18.17;10.07;;;10.00;99.90;;;;;;5083342;28;20205;-56
2021/05/28 05:49:34;;;;;;;11.47;9.37;;;10.00;99.90;;;;;;5079342;28;20193;-47
2021/05/28 05:52:01;;;;;;;11.80;8.10;;;10.00;99.90;;;;;;5076959;28;20209;-45
2021/05/28 05:54:27;;;;;;;10.30;8.47;;;10.00;99.90;;;;;;5074425;28;20196;-51
2021/05/28 05:56:54;;;;;;;9.80;8.70;;;10.10;99.90;;;;;;5079519;28;20222;-45
2021/05/28 05:59:20;;;;;;;10.80;8.90;;;10.10;99.90;;;;;;5062126;28;20336;-52
2021/05/28 06:01:46;;;;;;;11.07;8.27;;;10.10;99.90;;;;;;5082540;28;20201;-47
2021/05/28 06:04:12;;;;;;;12.80;8.90;;;10.10;99.90;;;;;;5081767;28;20190;-55
2021/05/28 06:06:40;;;;;;;9.60;8.27;;;10.10;99.90;;;;;;5073015;28;20213;-47
2021/05/28 06:09:06;;;;;;;9.67;8.37;;;10.20;99.90;;;;;;5082285;28;20190;-52
2021/05/28 06:11:33;;;;;;;11.17;8.60;;;10.20;99.90;;;;;;5069837;28;20202;-47
2021/05/28 06:14:00;;;;;;;12.53;9.00;;;10.30;99.90;;;;;;5066287;28;20209;-47
2021/05/28 06:16:26;;;;;;;10.73;8.03;;;10.30;99.90;;;;;;5079317;28;20210;-49
2021/05/28 06:18:52;;;;;;;10.33;7.93;;;10.30;99.90;;;;;;5082510;28;20209;-50
2021/05/28 06:21:18;;;;;;;10.90;8.03;;;10.30;99.90;;;;;;5075555;28;20202;-55
2021/05/28 06:23:44;;;;;;;12.80;8.60;;;10.40;99.90;;;;;;5081759;28;20186;-49
2021/05/28 06:26:10;;;;;;;11.57;8.23;;;10.40;99.90;;;;;;5077745;28;20210;-53
2021/05/28 06:28:36;;;;;;;10.67;7.57;;;10.40;99.90;;;;;;5075501;28;20204;-50
2021/05/28 06:31:03;;;;;;;11.00;8.23;;;10.50;99.90;;;;;;5068404;28;20271;-51
2021/05/28 06:33:29;;;;;;;8.70;6.47;;;10.50;99.90;;;;;;5077127;28;20937;-45
2021/05/28 06:35:56;;;;;;;12.47;7.03;;;10.50;99.90;;;;;;5078871;28;20659;-48
2021/05/28 06:38:22;;;;;;;14.27;8.23;;;10.50;99.90;;;;;;5074889;28;20205;-53
2021/05/28 06:40:48;;;;;;;11.10;7.47;;;10.40;99.90;;;;;;5070213;28;20210;-54
2021/05/28 06:43:14;;;;;;;12.80;7.40;;;10.50;99.90;;;;;;5076311;28;20197;-54
2021/05/28 06:45:41;;;;;;;10.27;7.73;;;10.50;99.90;;;;;;5062729;28;20475;-46
2021/05/28 06:48:09;;;;;;;12.87;8.07;;;10.60;99.90;;;;;;5046259;28;20214;-47
2021/05/28 06:50:37;;;;;;;11.93;7.27;;;10.60;99.90;;;;;;5076128;28;20217;-50
2021/05/28 06:53:04;;;;;;;12.27;6.23;;;10.60;99.90;;;;;;5072407;28;20945;-48
2021/05/28 06:55:30;;;;;;;10.97;6.77;;;10.60;99.90;;;;;;5075503;28;20644;-44
2021/05/28 06:57:56;;;;;;;12.47;7.27;;;10.70;99.90;;;;;;5072709;28;20246;-44
2021/05/28 07:00:23;;;;;;;11.53;7.40;;;10.70;99.90;;;;;;5068203;28;20214;-45
2021/05/28 07:02:49;;;;;;;11.67;7.00;;;10.70;99.90;;;;;;5072331;28;20197;-51
2021/05/28 07:05:16;;;;;;;10.40;7.27;;;10.70;99.90;;;;;;5083003;28;20258;-49
2021/05/28 07:07:43;;;;;;;9.23;7.40;;;10.60;99.90;;;;;;5080822;28;20271;-49
2021/05/28 07:10:10;;;;;;;12.77;7.80;;;10.60;99.90;;;;;;5082193;28;20190;-44
2021/05/28 07:12:36;;;;;;;8.80;7.00;;;10.60;99.90;;;;;;5077337;28;20198;-51
2021/05/28 07:15:03;;;;;;;16.13;7.20;;;10.60;99.90;;;;;;5075494;28;20201;-46
2021/05/28 07:17:29;;;;;;;7.40;6.33;;;10.60;99.90;;;;;;5060468;28;20221;-54
2021/05/28 07:19:56;;;;;;;11.30;6.70;;;10.50;99.90;;;;;;5075122;28;20233;-51
2021/05/28 07:22:23;;;;;;;9.47;6.60;;;10.60;99.90;;;;;;5071639;28;20206;-51
2021/05/28 07:24:49;;;;;;;11.37;6.87;;;10.60;99.90;;;;;;5075414;28;20949;-47
2021/05/28 07:27:15;;;;;;;9.97;6.10;;;10.50;99.90;;;;;;5075934;28;20694;-51
2021/05/28 07:29:41;;;;;;;10.67;6.10;;;10.50;99.90;;;;;;5078396;28;20332;-50
2021/05/28 07:32:07;;;;;;;11.10;6.07;;;10.60;99.90;;;;;;5070440;28;20248;-49
2021/05/28 07:34:34;;;;;;;10.37;6.23;;;10.60;99.90;;;;;;5073457;28;20960;-48
2021/05/28 07:37:00;;;;;;;9.60;6.73;;;10.60;99.90;;;;;;5082832;28;20221;-52
2021/05/28 07:39:28;;;;;;;13.70;6.67;;;10.60;99.90;;;;;;5068193;28;20243;-49
2021/05/28 07:41:54;;;;;;;10.70;6.57;;;10.60;99.90;;;;;;5077186;28;20194;-54
2021/05/28 07:44:20;;;;;;;10.77;6.83;;;10.60;99.90;;;;;;5078755;28;20652;-53
2021/05/28 07:46:46;;;;;;;14.03;6.90;;;10.70;99.90;;;;;;5079384;28;20224;-47
2021/05/28 07:49:14;;;;;;;13.97;8.17;;;10.70;99.90;;;;;;5069816;28;20220;-53
2021/05/28 07:51:41;;;;;;;16.87;8.50;;;10.70;99.90;;;;;;5074298;28;20272;-47
2021/05/28 07:54:08;;;;;;;15.50;10.77;;;10.80;99.90;;;;;;5073173;28;20624;-49
2021/05/28 07:56:36;;;;;;;13.30;9.43;;;10.90;99.90;;;;;;5075430;28;20237;-48
2021/05/28 07:59:03;;;;;;;15.27;10.43;;;10.90;99.90;;;;;;5077393;28;20217;-48
2021/05/28 08:01:29;;;;;;;14.23;10.37;;;10.90;99.90;;;;;;5074280;28;20663;-49
2021/05/28 08:03:56;;;;;;;12.70;10.97;;;11.00;99.90;;;;;;5066359;28;20206;-50
2021/05/28 08:06:23;;;;;;;12.37;9.83;;;11.10;99.90;;;;;;5075593;28;20214;-51
2021/05/28 08:08:49;;;;;;;10.43;9.17;;;11.20;99.90;;;;;;5077960;28;20243;-49
2021/05/28 08:11:16;;;;;;;16.63;9.57;;;11.20;99.90;;;;;;5079806;28;20655;-50
2021/05/28 08:13:43;;;;;;;16.43;9.63;;;11.30;99.90;;;;;;5069370;28;20320;-49
2021/05/28 08:16:09;;;;;;;12.40;10.10;;;11.30;99.90;;;;;;5073457;28;20606;-48
2021/05/28 08:18:36;;;;;;;11.17;10.00;;;11.40;99.90;;;;;;5059571;28;20224;-48
2021/05/28 08:21:04;;;;;;;12.50;9.67;;;11.30;99.90;;;;;;5083443;28;20198;-50
2021/05/28 08:23:30;;;;;;;10.97;9.83;;;11.30;99.90;;;;;;5075107;28;20229;-53
2021/05/28 08:25:56;;;;;;;11.67;10.47;;;11.40;99.90;;;;;;5068354;28;20209;-53
2021/05/28 08:28:22;;;;;;;16.67;12.33;;;11.40;99.90;;;;;;5077570;28;20194;-50
2021/05/28 08:30:50;;;;;;;15.17;11.80;;;11.50;99.90;;;;;;5074931;28;20202;-53
2021/05/28 08:33:16;;;;;;;14.23;11.30;;;11.50;99.90;;;;;;5081910;28;20194;-51
2021/05/28 08:35:44;;;;;;;14.07;10.20;;;11.60;99.90;;;;;;5071163;28;20637;-50
2021/05/28 08:38:11;;;;;;;14.73;11.40;;;11.70;99.90;;;;;;5074778;28;20206;-52
2021/05/28 08:40:38;;;;;;;13.57;11.30;;;11.60;99.90;;;;;;5080056;28;20682;-47
2021/05/28 08:43:06;;;;;;;14.67;10.90;;;11.70;99.90;;;;;;5071338;28;20212;-52
2021/05/28 08:45:36;;;;;;;12.73;10.97;;;11.70;99.90;;;;;;5069960;28;20212;-49
2021/05/28 08:48:05;;;;;;;12.27;10.60;;;11.80;99.90;;;;;;5075314;28;20222;-51
2021/05/28 08:50:32;;;;;;;12.73;9.50;;;11.90;99.90;;;;;;5063622;28;20210;-48
2021/05/28 08:53:01;;;;;;;11.63;8.33;;;12.00;99.90;;;;;;5077512;28;20190;-50
2021/05/28 08:55:27;;;;;;;11.97;8.80;;;12.10;99.90;;;;;;5071156;28;20589;-53
2021/05/28 08:57:53;;;;;;;11.93;9.30;;;12.20;99.90;;;;;;5076868;28;20308;-51
2021/05/28 09:00:20;;;;;;;11.63;9.33;;;12.40;99.90;;;;;;5072327;28;20833;-47
2021/05/28 09:02:46;;;;;;;9.30;7.80;;;12.40;99.90;;;;;;5083478;28;20259;-50
2021/05/28 09:05:16;;;;;;;8.73;7.23;;;12.50;99.90;;;;;;5065671;28;20227;-48
2021/05/28 09:07:53;;;;;;;9.60;8.20;;;12.50;99.90;;;;;;5084086;28;20536;-51
2021/05/28 09:10:31;;;;;;;13.37;9.17;;;12.70;99.90;;;;;;5066420;28;20205;-52
2021/05/28 09:13:15;;;;;;;10.77;8.43;;;12.90;99.90;;;;;;5069717;28;20210;-52
2021/05/28 09:15:44;;;;;;;10.87;8.33;;;13.00;99.90;;;;;;5079232;28;20205;-48
2021/05/28 09:18:10;;;;;;;14.20;8.63;;;13.00;99.90;;;;;;5067325;28;20225;-53
2021/05/28 09:20:37;;;;;;;10.73;8.77;;;13.00;99.90;;;;;;5063756;28;20218;-52
2021/05/28 09:23:10;;;;;;;12.00;8.43;;;12.90;99.90;;;;;;5082152;28;20202;-53
2021/05/28 09:26:06;;;;;;;9.17;7.33;;;12.80;99.90;;;;;;5071962;28;20210;-50
2021/05/28 09:28:41;;;;;;;10.40;7.20;;;12.70;99.90;;;;;;5008322;28;20228;-53
2021/05/28 09:31:10;;;;;;;10.60;6.63;;;12.70;99.90;;;;;;5067927;28;20209;-47
2021/05/28 09:33:38;;;;;;;12.27;7.23;;;12.70;99.90;;;;;;5073741;28;20209;-51
2021/05/28 09:36:10;;;;;;;10.97;7.00;;;12.60;99.90;;;;;;5063050;28;20804;-47
2021/05/28 09:38:37;;;;;;;7.87;6.90;;;12.60;99.90;;;;;;5073761;28;20246;-51
2021/05/28 09:41:03;;;;;;;10.30;6.80;;;12.60;99.90;;;;;;5071123;28;20275;-50
2021/05/28 09:43:30;;;;;;;12.03;7.50;;;12.70;99.90;;;;;;5071840;28;20206;-52
2021/05/28 09:45:56;;;;;;;15.50;7.00;;;12.90;99.90;;;;;;5073696;28;20263;-48
2021/05/28 09:48:26;;;;;;;9.20;6.93;;;13.10;99.90;;;;;;5077030;28;20198;-51
2021/05/28 09:50:54;;;;;;;10.03;6.87;;;13.20;99.90;;;;;;5073455;28;20194;-50
2021/05/28 09:53:32;;;;;;;7.90;6.67;;;13.30;99.90;;;;;;5070013;28;20210;-48
2021/05/28 09:56:00;;;;;;;10.03;6.77;;;13.40;99.90;;;;;;5070667;28;20317;-47
2021/05/28 09:58:46;;;;;;;9.33;7.43;;;13.50;99.90;;;;;;5074595;28;20205;-48
2021/05/28 10:01:12;;;;;;;10.83;7.10;;;13.40;99.90;;;;;;5074892;28;20201;-50
2021/05/28 10:03:38;;;;;;;12.03;6.67;;;13.40;99.90;;;;;;5071762;28;20206;-52
2021/05/28 10:06:05;;;;;;;7.33;5.93;;;13.40;99.90;;;;;;5078744;28;20765;-46
2021/05/28 10:08:33;;;;;;;10.27;6.07;;;13.40;99.90;;;;;;5066770;28;20218;-51
2021/05/28 10:11:00;;;;;;;9.20;6.53;;;13.40;99.90;;;;;;5072761;28;20287;-46
2021/05/28 10:13:28;;;;;;;11.00;6.67;;;13.40;99.90;;;;;;5072286;28;20213;-48
2021/05/28 10:15:56;;;;;;;8.30;6.50;;;13.50;99.90;;;;;;5079417;28;20227;-50
2021/05/28 10:18:23;;;;;;;11.40;6.67;;;13.60;99.90;;;;;;5073423;28;20206;-49
2021/05/28 10:20:51;;;;;;;10.20;5.93;;;13.60;99.90;;;;;;5074013;28;20226;-52
2021/05/28 10:23:17;;;;;;;11.87;6.30;;;13.70;99.90;;;;;;5062312;28;20202;-45
2021/05/28 10:25:45;;;;;;;10.40;5.67;;;13.80;99.90;;;;;;5075966;28;20254;-47
2021/05/28 10:28:16;;;;;;;10.87;5.13;;;14.10;99.90;;;;;;5071137;28;20224;-50
2021/05/28 10:30:44;;;;;;;9.57;5.17;;;14.20;99.90;;;;;;5075994;28;20217;-47
2021/05/28 10:33:15;;;;;;;10.67;5.97;;;14.20;99.90;;;;;;5061157;28;21784;-47
2021/05/28 10:35:45;;;;;;;7.33;5.20;;;14.20;99.90;;;;;;5083278;28;20194;-51
2021/05/28 10:38:38;;;;;;;14.63;5.73;;;14.20;99.90;;;;;;5065475;28;20214;-46
2021/05/28 10:41:47;;;;;;;13.33;6.17;;;14.20;99.90;;;;;;5068076;28;20592;-51
2021/05/28 10:44:21;;;;;;;8.53;6.00;;;14.30;99.90;;;;;;5075549;28;20194;-50
2021/05/28 10:46:58;;;;;;;8.70;5.47;;;14.50;99.90;;;;;;5079659;28;20234;-51
2021/05/28 10:49:41;;;;;;;6.73;5.60;;;14.50;99.90;;;;;;5076701;28;20285;-49
2021/05/28 10:52:09;;;;;;;7.70;5.07;;;14.40;99.90;;;;;;5081865;28;20200;-46
2021/05/28 10:54:40;;;;;;;12.13;5.97;;;14.40;99.90;;;;;;5072295;28;20202;-46
2021/05/28 10:57:42;;;;;;;9.27;6.03;;;14.40;99.90;;;;;;5072019;28;20521;-50
2021/05/28 11:00:19;;;;;;;8.03;5.87;;;14.40;99.90;;;;;;5076210;28;20897;-46
2021/05/28 11:03:10;;;;;;;7.70;5.23;;;14.50;99.90;;;;;;5071523;28;20690;-50
2021/05/28 11:06:00;;;;;;;8.87;5.83;;;14.60;99.90;;;;;;5080098;28;20202;-48
2021/05/28 11:08:47;;;;;;;9.93;5.40;;;14.60;99.90;;;;;;5068748;28;20194;-48
2021/05/28 11:11:57;;;;;;;8.03;4.77;;;14.70;99.90;;;;;;5078510;28;20202;-48
2021/05/28 11:14:23;;;;;;;11.43;5.87;;;14.80;99.90;;;;;;5075823;28;20794;-46
2021/05/28 11:17:17;;;;;;;17.57;5.97;;;15.00;99.90;;;;;;5075716;28;20591;-54
2021/05/28 11:19:56;;;;;;;9.77;6.40;;;15.20;99.90;;;;;;5066495;28;20289;-49
2021/05/28 11:22:29;;;;;;;11.97;6.13;;;15.30;99.90;;;;;;5082382;28;20213;-48
2021/05/28 11:24:58;;;;;;;13.00;6.87;;;15.50;99.90;;;;;;5065863;28;20197;-46
2021/05/28 11:27:46;;;;;;;11.37;5.87;;;15.60;99.90;;;;;;5080948;28;20229;-49
2021/05/28 11:30:37;;;;;;;10.73;5.53;;;15.80;99.90;;;;;;5078882;28;20212;-47
2021/05/28 11:33:05;;;;;;;9.77;5.80;;;15.70;99.90;;;;;;5077965;28;20409;-49
2021/05/28 11:35:38;;;;;;;9.27;5.53;;;15.50;99.90;;;;;;5073562;28;20210;-49
2021/05/28 11:38:06;;;;;;;10.93;6.57;;;15.50;99.90;;;;;;5083142;28;20236;-51
2021/05/28 11:40:39;;;;;;;8.70;5.10;;;15.40;99.90;;;;;;5069703;28;20279;-50
2021/05/28 11:43:08;;;;;;;10.27;6.00;;;15.40;99.90;;;;;;5085241;28;20233;-46
2021/05/28 11:45:35;;;;;;;10.07;6.70;;;15.50;99.90;;;;;;5074868;28;20205;-52
2021/05/28 11:48:02;;;;;;;11.63;5.13;;;15.60;99.90;;;;;;5080550;28;20224;-49
2021/05/28 11:50:39;;;;;;;9.37;6.30;;;15.50;99.90;;;;;;5074816;28;20915;-50
2021/05/28 11:53:06;;;;;;;9.07;5.33;;;15.50;99.90;;;;;;5084477;28;20243;-48
2021/05/28 11:55:42;;;;;;;12.30;5.83;;;15.50;99.90;;;;;;5077525;28;20259;-47
2021/05/28 11:58:09;;;;;;;15.40;5.87;;;15.40;99.90;;;;;;5085695;28;20221;-46
2021/05/28 12:00:35;;;;;;;11.70;5.63;;;15.40;99.90;;;;;;5071234;28;20737;-50
2021/05/28 12:03:02;;;;;;;7.87;5.07;;;15.40;99.90;;;;;;5074394;28;20217;-47
2021/05/28 12:05:31;;;;;;;9.73;4.10;;;15.40;99.90;;;;;;5082811;28;20197;-53
2021/05/28 12:07:59;;;;;;;11.87;5.30;;;15.40;99.90;;;;;;5069985;28;20222;-48
2021/05/28 12:10:27;;;;;;;8.10;5.00;;;15.40;99.90;;;;;;5066758;28;20197;-49
2021/05/28 12:13:01;;;;;;;8.23;4.53;;;15.40;99.90;;;;;;5067155;28;20749;-47
2021/05/28 12:15:30;;;;;;;6.43;5.17;;;15.50;99.90;;;;;;5081913;28;20287;-49
2021/05/28 12:17:57;;;;;;;6.93;5.23;;;15.50;99.90;;;;;;5073929;28;20838;-46
2021/05/28 12:20:26;;;;;;;7.93;4.67;;;15.50;99.90;;;;;;5083876;28;20224;-47
2021/05/28 12:23:12;;;;;;;8.03;5.27;;;15.50;99.90;;;;;;5076279;28;20198;-47
2021/05/28 12:25:42;;;;;;;8.27;4.97;;;15.60;99.90;;;;;;5074874;28;20197;-49
2021/05/28 12:28:28;;;;;;;7.10;4.80;;;15.60;99.90;;;;;;5068485;28;20300;-47
2021/05/28 12:30:58;;;;;;;15.47;5.13;;;15.70;99.90;;;;;;5072761;28;20221;-46
2021/05/28 12:33:29;;;;;;;7.87;4.97;;;15.70;99.90;;;;;;5080181;28;20718;-51
2021/05/28 12:35:57;;;;;;;11.17;4.80;;;15.60;99.90;;;;;;5078532;28;20898;-48
2021/05/28 12:38:31;;;;;;;9.07;4.50;;;15.70;99.90;;;;;;5068387;28;20248;-49
2021/05/28 12:41:00;;;;;;;9.63;4.37;;;15.80;99.90;;;;;;5081168;28;20287;-49
2021/05/28 12:43:27;;;;;;;8.23;4.97;;;15.60;99.90;;;;;;5067809;28;20202;-51
2021/05/28 12:45:55;;;;;;;8.63;4.93;;;15.60;99.90;;;;;;5080997;28;20697;-47
2021/05/28 12:48:21;;;;;;;6.60;4.47;;;15.50;99.90;;;;;;5077040;28;20225;-46
2021/05/28 12:50:50;;;;;;;9.23;4.87;;;15.50;99.90;;;;;;5066200;28;20281;-46
2021/05/28 12:53:19;;;;;;;6.63;4.70;;;15.50;99.90;;;;;;5078858;28;20202;-46